KRZN

Details ICAO KRZN
Name BURNETT CO
Region United States
Timezone America/Chicago (UTC-5.0)
Plans Departing 2
Arriving 3
Stats Elevation 989 ft / 301 m (AMSL)
Location 45.822677° -92.372490°
Runways 2
Magnetic Variation 0.661° W
Sunrise 2018-05-21 10:32:53 UTC / 2018-05-21 05:32:53 Local
Sunset 2018-05-22 01:42:10 UTC / 2018-05-21 20:42:10 Local
Advertisement - Login to hide

Runways

ID Width Length Bearing (true) Bearing (mag) Surface Threshold Offset Overrun Length
04 75 ft / 23 m 3,897 ft / 1,188 m 45.34° 46.00° Asphalt 0 ft / 0 m 0 ft / 0 m
13 75 ft / 23 m 3,497 ft / 1,066 m 136.68° 137.34° Asphalt 0 ft / 0 m 0 ft / 0 m
22 75 ft / 23 m 3,897 ft / 1,188 m 225.34° 226.00° Asphalt 0 ft / 0 m 0 ft / 0 m
31 75 ft / 23 m 3,497 ft / 1,066 m 316.69° 317.35° Asphalt 0 ft / 0 m 0 ft / 0 m

Map

Weather


0- 5 10 15 20 25 30 35+ Temperature / ° C

Clouds and Precipitation
Forecast for 2018-05-21 18:00 UTC. Updated an hour ago

Ground ~20,000 ft ~40,000 ft Winds

METAR

KRZN 211815Z AUTO 15010KT 10SM SCT050 OVC065 20/M10 A3008 RMK AO2 T02021098

TAF

Not found

Frequencies

Recorded 118.32 MHz AWOS 3
Unicom 122.80 MHz CTAF/UNICOM
Warning: Do not use this data for real-world aviation or navigation. No guarantee of current accuracy is given.